sensor_id;sensor_type;location;lat;lon;timestamp;pressure;altitude;pressure_sealevel;temperature;humidity
80851;BME280;70268;50.292;6.666;2023-07-20T00:00:20;96345.06;;;24.43;50.05
80851;BME280;70268;50.292;6.666;2023-07-20T00:02:50;96355.03;;;24.41;50.14
80851;BME280;70268;50.292;6.666;2023-07-20T00:05:19;96352.19;;;24.42;50.03
80851;BME280;70268;50.292;6.666;2023-07-20T00:07:48;96339.81;;;24.29;50.35
80851;BME280;70268;50.292;6.666;2023-07-20T00:10:19;96343.25;;;24.30;50.23
80851;BME280;70268;50.292;6.666;2023-07-20T00:12:48;96342.25;;;24.38;50.32
80851;BME280;70268;50.292;6.666;2023-07-20T00:15:16;96347.75;;;24.36;50.46
80851;BME280;70268;50.292;6.666;2023-07-20T00:17:46;96343.00;;;24.45;50.33
80851;BME280;70268;50.292;6.666;2023-07-20T00:20:15;96342.16;;;24.51;50.24
80851;BME280;70268;50.292;6.666;2023-07-20T00:22:43;96344.81;;;24.51;50.23
80851;BME280;70268;50.292;6.666;2023-07-20T00:25:12;96353.38;;;24.53;50.28
80851;BME280;70268;50.292;6.666;2023-07-20T00:27:41;96345.59;;;24.58;50.19
80851;BME280;70268;50.292;6.666;2023-07-20T00:30:10;96347.81;;;24.61;50.26
80851;BME280;70268;50.292;6.666;2023-07-20T00:32:39;96339.91;;;24.61;50.24
80851;BME280;70268;50.292;6.666;2023-07-20T00:35:09;96345.56;;;24.65;50.01
80851;BME280;70268;50.292;6.666;2023-07-20T00:37:39;96340.91;;;24.67;49.96
80851;BME280;70268;50.292;6.666;2023-07-20T00:40:08;96350.66;;;24.66;50.30
80851;BME280;70268;50.292;6.666;2023-07-20T00:42:36;96356.75;;;24.67;50.20
80851;BME280;70268;50.292;6.666;2023-07-20T00:45:06;96344.34;;;24.67;50.27
80851;BME280;70268;50.292;6.666;2023-07-20T00:47:36;96346.97;;;24.74;50.06
80851;BME280;70268;50.292;6.666;2023-07-20T00:50:06;96339.84;;;24.75;50.17
80851;BME280;70268;50.292;6.666;2023-07-20T00:52:37;96340.63;;;24.75;49.94
80851;BME280;70268;50.292;6.666;2023-07-20T00:55:07;96335.97;;;24.70;50.26
80851;BME280;70268;50.292;6.666;2023-07-20T00:57:37;96330.47;;;24.72;50.08
80851;BME280;70268;50.292;6.666;2023-07-20T01:00:07;96338.25;;;24.67;50.15
80851;BME280;70268;50.292;6.666;2023-07-20T01:02:36;96332.06;;;24.80;50.04
80851;BME280;70268;50.292;6.666;2023-07-20T01:05:05;96336.56;;;24.79;50.01
80851;BME280;70268;50.292;6.666;2023-07-20T01:07:37;96327.00;;;24.78;50.07
80851;BME280;70268;50.292;6.666;2023-07-20T01:10:11;96326.97;;;24.85;50.29
80851;BME280;70268;50.292;6.666;2023-07-20T01:12:41;96329.81;;;24.83;49.96
80851;BME280;70268;50.292;6.666;2023-07-20T01:15:10;96323.91;;;24.88;50.12
80851;BME280;70268;50.292;6.666;2023-07-20T01:17:39;96329.56;;;24.92;49.90
80851;BME280;70268;50.292;6.666;2023-07-20T01:20:09;96328.38;;;24.87;50.05
80851;BME280;70268;50.292;6.666;2023-07-20T01:23:01;96327.56;;;24.87;50.11
80851;BME280;70268;50.292;6.666;2023-07-20T01:25:48;96322.69;;;24.84;50.44
80851;BME280;70268;50.292;6.666;2023-07-20T01:28:40;96327.56;;;24.87;50.34
80851;BME280;70268;50.292;6.666;2023-07-20T01:31:24;96328.16;;;24.89;50.37
80851;BME280;70268;50.292;6.666;2023-07-20T01:33:55;96330.97;;;24.94;50.23
80851;BME280;70268;50.292;6.666;2023-07-20T01:36:26;96327.50;;;25.00;49.96
80851;BME280;70268;50.292;6.666;2023-07-20T01:38:56;96321.25;;;24.95;50.23
80851;BME280;70268;50.292;6.666;2023-07-20T01:41:25;96326.13;;;24.91;50.55
80851;BME280;70268;50.292;6.666;2023-07-20T01:43:57;96325.09;;;24.99;50.18
80851;BME280;70268;50.292;6.666;2023-07-20T01:46:27;96323.66;;;25.03;50.17
80851;BME280;70268;50.292;6.666;2023-07-20T01:48:57;96319.75;;;25.05;50.12
80851;BME280;70268;50.292;6.666;2023-07-20T01:51:26;96321.00;;;25.03;50.37
80851;BME280;70268;50.292;6.666;2023-07-20T01:53:54;96320.16;;;25.02;50.38
80851;BME280;70268;50.292;6.666;2023-07-20T01:56:23;96321.31;;;25.13;49.95
80851;BME280;70268;50.292;6.666;2023-07-20T01:58:52;96321.59;;;25.05;50.32
80851;BME280;70268;50.292;6.666;2023-07-20T02:01:20;96318.28;;;25.10;50.10
80851;BME280;70268;50.292;6.666;2023-07-20T02:03:51;96317.28;;;25.11;50.29
80851;BME280;70268;50.292;6.666;2023-07-20T02:06:20;96309.34;;;25.11;50.26
80851;BME280;70268;50.292;6.666;2023-07-20T02:08:49;96314.63;;;25.11;50.43
80851;BME280;70268;50.292;6.666;2023-07-20T02:11:17;96311.56;;;25.14;50.35
80851;BME280;70268;50.292;6.666;2023-07-20T02:13:46;96303.84;;;25.12;50.37
80851;BME280;70268;50.292;6.666;2023-07-20T02:16:15;96309.28;;;25.17;50.03
80851;BME280;70268;50.292;6.666;2023-07-20T02:18:43;96311.16;;;25.10;50.41
80851;BME280;70268;50.292;6.666;2023-07-20T02:21:13;96303.19;;;25.17;50.36
80851;BME280;70268;50.292;6.666;2023-07-20T02:23:42;96302.56;;;25.15;50.24
80851;BME280;70268;50.292;6.666;2023-07-20T02:26:10;96308.41;;;25.23;50.08
80851;BME280;70268;50.292;6.666;2023-07-20T02:28:39;96306.84;;;25.16;50.18
80851;BME280;70268;50.292;6.666;2023-07-20T02:31:08;96312.56;;;25.13;50.25
80851;BME280;70268;50.292;6.666;2023-07-20T02:33:37;96308.84;;;25.20;50.26
80851;BME280;70268;50.292;6.666;2023-07-20T02:36:05;96303.84;;;25.12;50.40
80851;BME280;70268;50.292;6.666;2023-07-20T02:38:36;96302.56;;;25.15;50.60
80851;BME280;70268;50.292;6.666;2023-07-20T02:41:04;96307.22;;;25.19;50.29
80851;BME280;70268;50.292;6.666;2023-07-20T02:43:33;96303.34;;;25.22;50.64
80851;BME280;70268;50.292;6.666;2023-07-20T02:46:01;96300.31;;;25.44;49.86
80851;BME280;70268;50.292;6.666;2023-07-20T02:48:30;96299.53;;;25.43;49.91
80851;BME280;70268;50.292;6.666;2023-07-20T02:50:58;96296.50;;;25.14;50.11
80851;BME280;70268;50.292;6.666;2023-07-20T02:53:27;96307.56;;;25.04;50.14
80851;BME280;70268;50.292;6.666;2023-07-20T02:55:57;96295.41;;;24.90;50.57
80851;BME280;70268;50.292;6.666;2023-07-20T02:58:26;96301.38;;;24.79;50.93
80851;BME280;70268;50.292;6.666;2023-07-20T03:00:54;96301.38;;;24.79;50.81
80851;BME280;70268;50.292;6.666;2023-07-20T03:03:23;96303.03;;;24.73;50.86
80851;BME280;70268;50.292;6.666;2023-07-20T03:05:52;96301.81;;;24.69;51.22
80851;BME280;70268;50.292;6.666;2023-07-20T03:08:23;96304.09;;;24.65;51.16
80851;BME280;70268;50.292;6.666;2023-07-20T03:10:54;96307.97;;;24.63;51.43
80851;BME280;70268;50.292;6.666;2023-07-20T03:13:26;96308.00;;;24.56;51.68
80851;BME280;70268;50.292;6.666;2023-07-20T03:15:55;96304.75;;;24.54;51.61
80851;BME280;70268;50.292;6.666;2023-07-20T03:18:24;96303.34;;;24.51;51.68
80851;BME280;70268;50.292;6.666;2023-07-20T03:20:54;96306.59;;;24.54;51.76
80851;BME280;70268;50.292;6.666;2023-07-20T03:23:25;96306.78;;;24.52;51.57
80851;BME280;70268;50.292;6.666;2023-07-20T03:25:53;96308.88;;;24.43;52.03
80851;BME280;70268;50.292;6.666;2023-07-20T03:28:23;96311.94;;;24.40;52.19
80851;BME280;70268;50.292;6.666;2023-07-20T03:30:54;96315.81;;;24.38;52.13
80851;BME280;70268;50.292;6.666;2023-07-20T03:33:26;96313.19;;;24.38;52.19
80851;BME280;70268;50.292;6.666;2023-07-20T03:35:56;96312.13;;;24.45;52.10
80851;BME280;70268;50.292;6.666;2023-07-20T03:38:26;96316.63;;;24.31;52.50
80851;BME280;70268;50.292;6.666;2023-07-20T03:40:56;96314.22;;;24.23;52.38
80851;BME280;70268;50.292;6.666;2023-07-20T03:43:25;96322.38;;;24.22;52.63
80851;BME280;70268;50.292;6.666;2023-07-20T03:45:57;96320.94;;;24.19;52.62
80851;BME280;70268;50.292;6.666;2023-07-20T03:48:25;96323.75;;;24.17;52.79
80851;BME280;70268;50.292;6.666;2023-07-20T03:50:56;96319.31;;;24.11;52.83
80851;BME280;70268;50.292;6.666;2023-07-20T03:53:25;96322.78;;;24.12;52.90
80851;BME280;70268;50.292;6.666;2023-07-20T03:55:54;96322.78;;;24.12;52.90
80851;BME280;70268;50.292;6.666;2023-07-20T03:58:23;96329.69;;;24.06;52.75
80851;BME280;70268;50.292;6.666;2023-07-20T04:00:52;96330.28;;;24.08;52.78
80851;BME280;70268;50.292;6.666;2023-07-20T04:03:22;96335.38;;;24.10;52.67
80851;BME280;70268;50.292;6.666;2023-07-20T04:05:54;96340.47;;;24.05;52.93
80851;BME280;70268;50.292;6.666;2023-07-20T04:08:24;96342.09;;;24.06;52.98
80851;BME280;70268;50.292;6.666;2023-07-20T04:10:54;96336.22;;;23.97;53.19
80851;BME280;70268;50.292;6.666;2023-07-20T04:13:24;96336.63;;;24.01;53.07
80851;BME280;70268;50.292;6.666;2023-07-20T04:15:52;96338.88;;;23.97;53.25
80851;BME280;70268;50.292;6.666;2023-07-20T04:18:24;96334.19;;;23.92;53.34
80851;BME280;70268;50.292;6.666;2023-07-20T04:20:53;96336.00;;;23.92;53.18
80851;BME280;70268;50.292;6.666;2023-07-20T04:23:23;96326.69;;;23.89;53.02
80851;BME280;70268;50.292;6.666;2023-07-20T04:25:52;96330.72;;;23.92;53.25
80851;BME280;70268;50.292;6.666;2023-07-20T04:28:21;96336.63;;;23.87;53.35
80851;BME280;70268;50.292;6.666;2023-07-20T04:30:52;96341.13;;;23.87;53.34
80851;BME280;70268;50.292;6.666;2023-07-20T04:33:23;96346.38;;;23.87;53.31
80851;BME280;70268;50.292;6.666;2023-07-20T04:35:56;96347.19;;;23.87;53.49
80851;BME280;70268;50.292;6.666;2023-07-20T04:38:28;96352.09;;;23.84;53.30
80851;BME280;70268;50.292;6.666;2023-07-20T04:41:11;96346.59;;;23.85;53.37
80851;BME280;70268;50.292;6.666;2023-07-20T04:43:45;96352.69;;;23.86;53.40
80851;BME280;70268;50.292;6.666;2023-07-20T04:46:17;96353.09;;;23.83;53.52
80851;BME280;70268;50.292;6.666;2023-07-20T04:48:48;96346.63;;;23.78;53.59
80851;BME280;70268;50.292;6.666;2023-07-20T04:51:19;96350.66;;;23.81;53.58
80851;BME280;70268;50.292;6.666;2023-07-20T04:53:52;96351.69;;;23.80;53.63
80851;BME280;70268;50.292;6.666;2023-07-20T04:56:21;96353.13;;;23.76;53.59
80851;BME280;70268;50.292;6.666;2023-07-20T04:58:52;96350.47;;;23.76;53.86
80851;BME280;70268;50.292;6.666;2023-07-20T05:01:21;96338.50;;;23.80;53.68
80851;BME280;70268;50.292;6.666;2023-07-20T05:03:51;96336.69;;;23.74;53.69
80851;BME280;70268;50.292;6.666;2023-07-20T05:06:21;96338.69;;;23.72;53.89
80851;BME280;70268;50.292;6.666;2023-07-20T05:08:50;96335.84;;;23.73;53.73
80851;BME280;70268;50.292;6.666;2023-07-20T05:11:19;96336.47;;;23.69;53.89
80851;BME280;70268;50.292;6.666;2023-07-20T05:13:48;96341.16;;;23.67;53.90
80851;BME280;70268;50.292;6.666;2023-07-20T05:16:16;96342.75;;;23.68;53.94
80851;BME280;70268;50.292;6.666;2023-07-20T05:18:45;96339.31;;;23.67;53.79
80851;BME280;70268;50.292;6.666;2023-07-20T05:21:15;96340.94;;;23.68;53.64
80851;BME280;70268;50.292;6.666;2023-07-20T05:23:44;96342.34;;;23.71;53.77
80851;BME280;70268;50.292;6.666;2023-07-20T05:26:14;96336.06;;;23.72;53.76
80851;BME280;70268;50.292;6.666;2023-07-20T05:28:42;96343.78;;;23.67;53.73
80851;BME280;70268;50.292;6.666;2023-07-20T05:31:11;96347.22;;;23.67;54.08
80851;BME280;70268;50.292;6.666;2023-07-20T05:33:40;96348.03;;;23.68;53.72
80851;BME280;70268;50.292;6.666;2023-07-20T05:36:09;96350.28;;;23.64;53.66
80851;BME280;70268;50.292;6.666;2023-07-20T05:38:39;96342.16;;;23.66;53.73
80851;BME280;70268;50.292;6.666;2023-07-20T05:41:07;96349.88;;;23.60;54.13
80851;BME280;70268;50.292;6.666;2023-07-20T05:43:37;96348.44;;;23.58;54.20
80851;BME280;70268;50.292;6.666;2023-07-20T05:46:06;96345.41;;;23.61;53.94
80851;BME280;70268;50.292;6.666;2023-07-20T05:48:35;96350.50;;;23.56;54.36
80851;BME280;70268;50.292;6.666;2023-07-20T05:51:03;96350.69;;;23.54;54.39
80851;BME280;70268;50.292;6.666;2023-07-20T05:53:32;96350.06;;;23.52;54.43
80851;BME280;70268;50.292;6.666;2023-07-20T05:56:02;96354.53;;;23.58;54.38
80851;BME280;70268;50.292;6.666;2023-07-20T05:58:31;96357.78;;;23.54;54.21
80851;BME280;70268;50.292;6.666;2023-07-20T06:00:59;96362.66;;;23.57;54.14
80851;BME280;70268;50.292;6.666;2023-07-20T06:03:29;96361.44;;;23.59;54.20
80851;BME280;70268;50.292;6.666;2023-07-20T06:05:59;96368.94;;;23.49;54.51
80851;BME280;70268;50.292;6.666;2023-07-20T06:08:29;96369.97;;;23.48;54.50
80851;BME280;70268;50.292;6.666;2023-07-20T06:10:58;96367.53;;;23.47;54.64
80851;BME280;70268;50.292;6.666;2023-07-20T06:13:27;96369.38;;;23.53;54.37
80851;BME280;70268;50.292;6.666;2023-07-20T06:15:56;96375.06;;;23.50;54.39
80851;BME280;70268;50.292;6.666;2023-07-20T06:18:25;96375.47;;;23.47;54.52
80851;BME280;70268;50.292;6.666;2023-07-20T06:20:53;96376.25;;;23.54;54.34
80851;BME280;70268;50.292;6.666;2023-07-20T06:23:22;96379.69;;;23.48;54.58
80851;BME280;70268;50.292;6.666;2023-07-20T06:25:50;96370.78;;;23.49;54.37
80851;BME280;70268;50.292;6.666;2023-07-20T06:28:19;96366.72;;;23.53;54.31
80851;BME280;70268;50.292;6.666;2023-07-20T06:30:49;96367.13;;;23.50;54.51
80851;BME280;70268;50.292;6.666;2023-07-20T06:33:18;96364.69;;;23.55;54.59
80851;BME280;70268;50.292;6.666;2023-07-20T06:35:47;96365.50;;;23.55;54.51
80851;BME280;70268;50.292;6.666;2023-07-20T06:38:16;96365.31;;;23.63;54.46
80851;BME280;70268;50.292;6.666;2023-07-20T06:40:47;96368.75;;;23.57;54.45
80851;BME280;70268;50.292;6.666;2023-07-20T06:43:16;96374.22;;;23.62;54.57
80851;BME280;70268;50.292;6.666;2023-07-20T06:45:52;96373.41;;;23.55;54.64
80851;BME280;70268;50.292;6.666;2023-07-20T06:48:22;96372.59;;;23.55;54.86
80851;BME280;70268;50.292;6.666;2023-07-20T06:50:50;96370.16;;;23.60;54.71
80851;BME280;70268;50.292;6.666;2023-07-20T06:53:19;96377.28;;;23.59;55.00
80851;BME280;70268;50.292;6.666;2023-07-20T06:55:48;96372.19;;;23.71;54.42
80851;BME280;70268;50.292;6.666;2023-07-20T06:58:17;96374.03;;;23.64;54.74
80851;BME280;70268;50.292;6.666;2023-07-20T07:00:46;96380.13;;;23.71;54.55
80851;BME280;70268;50.292;6.666;2023-07-20T07:03:16;96377.69;;;23.70;54.85
80851;BME280;70268;50.292;6.666;2023-07-20T07:05:45;96387.22;;;23.71;54.67
80851;BME280;70268;50.292;6.666;2023-07-20T07:08:17;96379.50;;;23.69;54.70
80851;BME280;70268;50.292;6.666;2023-07-20T07:10:46;96391.28;;;23.67;54.78
80851;BME280;70268;50.292;6.666;2023-07-20T07:13:14;96393.94;;;23.67;54.79
80851;BME280;70268;50.292;6.666;2023-07-20T07:15:44;96393.91;;;23.73;54.62
80851;BME280;70268;50.292;6.666;2023-07-20T07:18:13;96384.00;;;23.75;54.21
80851;BME280;70268;50.292;6.666;2023-07-20T07:20:50;96391.28;;;23.73;54.71
80851;BME280;70268;50.292;6.666;2023-07-20T07:23:18;96382.75;;;23.71;54.81
80851;BME280;70268;50.292;6.666;2023-07-20T07:25:48;96393.13;;;23.73;54.74
80851;BME280;70268;50.292;6.666;2023-07-20T07:28:16;96387.22;;;23.77;54.77
80851;BME280;70268;50.292;6.666;2023-07-20T07:30:45;96391.28;;;23.80;54.29
80851;BME280;70268;50.292;6.666;2023-07-20T07:33:13;96393.53;;;23.83;54.38
80851;BME280;70268;50.292;6.666;2023-07-20T07:35:43;96395.13;;;23.84;54.54
80851;BME280;70268;50.292;6.666;2023-07-20T07:38:13;96388.22;;;23.76;54.83
80851;BME280;70268;50.292;6.666;2023-07-20T07:41:01;96389.06;;;23.77;55.01
80851;BME280;70268;50.292;6.666;2023-07-20T07:43:30;96397.97;;;23.69;54.83
80851;BME280;70268;50.292;6.666;2023-07-20T07:45:58;96396.56;;;23.67;55.11
80851;BME280;70268;50.292;6.666;2023-07-20T07:48:27;96401.44;;;23.70;54.68
80851;BME280;70268;50.292;6.666;2023-07-20T07:50:58;96401.44;;;23.70;54.81
80851;BME280;70268;50.292;6.666;2023-07-20T07:53:26;96399.00;;;23.68;54.98
80851;BME280;70268;50.292;6.666;2023-07-20T07:55:55;96390.88;;;23.70;54.79
80851;BME280;70268;50.292;6.666;2023-07-20T07:58:24;96393.94;;;23.67;54.72
80851;BME280;70268;50.292;6.666;2023-07-20T08:00:52;96392.72;;;23.76;54.64
80851;BME280;70268;50.292;6.666;2023-07-20T08:03:21;96388.66;;;23.80;54.43
80851;BME280;70268;50.292;6.666;2023-07-20T08:05:53;96398.38;;;23.79;54.48
80851;BME280;70268;50.292;6.666;2023-07-20T08:08:24;96389.25;;;23.82;54.24
80851;BME280;70268;50.292;6.666;2023-07-20T08:10:53;96403.88;;;23.78;54.37
80851;BME280;70268;50.292;6.666;2023-07-20T08:13:22;96397.38;;;23.80;54.41
80851;BME280;70268;50.292;6.666;2023-07-20T08:15:51;96392.91;;;23.81;54.33
80851;BME280;70268;50.292;6.666;2023-07-20T08:18:20;96397.59;;;23.79;54.40
80851;BME280;70268;50.292;6.666;2023-07-20T08:20:49;96402.88;;;23.79;54.36
80851;BME280;70268;50.292;6.666;2023-07-20T08:23:18;96401.66;;;23.81;54.13
80851;BME280;70268;50.292;6.666;2023-07-20T08:25:48;96400.00;;;23.87;54.12
80851;BME280;70268;50.292;6.666;2023-07-20T08:28:16;96400.44;;;23.91;53.87
80851;BME280;70268;50.292;6.666;2023-07-20T08:30:47;96401.84;;;23.87;54.04
80851;BME280;70268;50.292;6.666;2023-07-20T08:33:17;96404.06;;;23.90;54.11
80851;BME280;70268;50.292;6.666;2023-07-20T08:35:47;96398.38;;;23.93;53.91
80851;BME280;70268;50.292;6.666;2023-07-20T08:38:16;96391.25;;;23.93;53.82
80851;BME280;70268;50.292;6.666;2023-07-20T08:40:45;96401.22;;;23.98;54.02
80851;BME280;70268;50.292;6.666;2023-07-20T08:43:16;96393.69;;;23.95;53.92
80851;BME280;70268;50.292;6.666;2023-07-20T08:45:46;96400.59;;;23.96;53.85
80851;BME280;70268;50.292;6.666;2023-07-20T08:48:18;96400.59;;;23.96;53.78
80851;BME280;70268;50.292;6.666;2023-07-20T08:50:47;96401.84;;;24.00;53.86
80851;BME280;70268;50.292;6.666;2023-07-20T08:53:17;96394.13;;;23.98;53.63
80851;BME280;70268;50.292;6.666;2023-07-20T08:55:48;96392.09;;;23.94;53.96
80851;BME280;70268;50.292;6.666;2023-07-20T08:58:20;96397.16;;;24.02;53.77
80851;BME280;70268;50.292;6.666;2023-07-20T09:00:49;96396.94;;;24.04;53.86
80851;BME280;70268;50.292;6.666;2023-07-20T09:03:19;96397.78;;;24.04;53.69
80851;BME280;70268;50.292;6.666;2023-07-20T09:05:48;96403.84;;;24.05;53.66
80851;BME280;70268;50.292;6.666;2023-07-20T09:08:17;96401.41;;;24.10;53.60
80851;BME280;70268;50.292;6.666;2023-07-20T09:10:45;96394.09;;;24.12;53.67
80851;BME280;70268;50.292;6.666;2023-07-20T09:13:14;96398.13;;;24.14;53.50
80851;BME280;70268;50.292;6.666;2023-07-20T09:15:53;96392.84;;;24.14;53.67
80851;BME280;70268;50.292;6.666;2023-07-20T09:18:25;96385.75;;;24.15;53.65
80851;BME280;70268;50.292;6.666;2023-07-20T09:20:58;96398.19;;;24.21;53.44
80851;BME280;70268;50.292;6.666;2023-07-20T09:23:31;96392.91;;;24.21;53.28
80851;BME280;70268;50.292;6.666;2023-07-20T09:26:00;96381.28;;;24.22;53.30
80851;BME280;70268;50.292;6.666;2023-07-20T09:28:29;96379.06;;;24.19;53.48
80851;BME280;70268;50.292;6.666;2023-07-20T09:31:15;96379.06;;;24.19;53.42
80851;BME280;70268;50.292;6.666;2023-07-20T09:33:44;96390.47;;;24.20;53.47
80851;BME280;70268;50.292;6.666;2023-07-20T09:36:15;96375.41;;;24.20;53.34
80851;BME280;70268;50.292;6.666;2023-07-20T09:39:04;96376.22;;;24.21;53.40
80851;BME280;70268;50.292;6.666;2023-07-20T09:41:39;96377.44;;;24.18;53.39
80851;BME280;70268;50.292;6.666;2023-07-20T09:44:14;96374.16;;;24.16;53.29
80851;BME280;70268;50.292;6.666;2023-07-20T09:46:48;96378.63;;;24.15;53.56
80851;BME280;70268;50.292;6.666;2023-07-20T09:49:20;96379.84;;;24.13;53.58
80851;BME280;70268;50.292;6.666;2023-07-20T09:51:53;96375.63;;;24.12;53.63
80851;BME280;70268;50.292;6.666;2023-07-20T09:54:24;96372.13;;;24.11;53.45
80851;BME280;70268;50.292;6.666;2023-07-20T09:56:55;96377.41;;;24.11;53.47
80851;BME280;70268;50.292;6.666;2023-07-20T09:59:24;96378.47;;;24.10;53.54
80851;BME280;70268;50.292;6.666;2023-07-20T10:01:58;96377.03;;;24.08;53.75
80851;BME280;70268;50.292;6.666;2023-07-20T10:04:28;96383.31;;;24.07;53.70
80851;BME280;70268;50.292;6.666;2023-07-20T10:06:59;96376.22;;;24.07;53.88
80851;BME280;70268;50.292;6.666;2023-07-20T10:09:28;96377.84;;;24.22;53.89
80851;BME280;70268;50.292;6.666;2023-07-20T10:11:59;96378.44;;;24.24;54.08
80851;BME280;70268;50.292;6.666;2023-07-20T10:14:51;96375.59;;;24.19;54.17
80851;BME280;70268;50.292;6.666;2023-07-20T10:17:23;96373.00;;;23.98;53.64
80851;BME280;70268;50.292;6.666;2023-07-20T10:19:57;96369.94;;;23.88;50.84
80851;BME280;70268;50.292;6.666;2023-07-20T10:22:31;96372.81;;;23.80;47.84
80851;BME280;70268;50.292;6.666;2023-07-20T10:25:09;96363.06;;;23.74;47.87
80851;BME280;70268;50.292;6.666;2023-07-20T10:27:38;96358.38;;;23.69;46.99
80851;BME280;70268;50.292;6.666;2023-07-20T10:30:08;96363.47;;;23.64;47.33
80851;BME280;70268;50.292;6.666;2023-07-20T10:32:39;96356.34;;;23.64;46.93
80851;BME280;70268;50.292;6.666;2023-07-20T10:35:13;96361.44;;;23.73;47.72
80851;BME280;70268;50.292;6.666;2023-07-20T10:37:47;96367.13;;;23.76;46.48
80851;BME280;70268;50.292;6.666;2023-07-20T10:40:33;96360.81;;;23.71;46.79
80851;BME280;70268;50.292;6.666;2023-07-20T10:43:05;96357.78;;;23.67;46.88
80851;BME280;70268;50.292;6.666;2023-07-20T10:45:48;96348.63;;;23.63;46.55
80851;BME280;70268;50.292;6.666;2023-07-20T10:48:20;96350.28;;;23.64;45.59
80851;BME280;70268;50.292;6.666;2023-07-20T10:51:08;96341.34;;;23.45;45.25
80851;BME280;70268;50.292;6.666;2023-07-20T10:53:37;96340.50;;;23.24;45.18
80851;BME280;70268;50.292;6.666;2023-07-20T10:56:09;96343.94;;;23.18;45.53
80851;BME280;70268;50.292;6.666;2023-07-20T10:58:39;96340.50;;;23.24;45.60
80851;BME280;70268;50.292;6.666;2023-07-20T11:01:13;96352.66;;;23.32;45.52
80851;BME280;70268;50.292;6.666;2023-07-20T11:03:48;96340.91;;;23.35;45.12
80851;BME280;70268;50.292;6.666;2023-07-20T11:06:30;96337.25;;;23.22;44.79
80851;BME280;70268;50.292;6.666;2023-07-20T11:09:22;96344.75;;;23.25;44.51
80851;BME280;70268;50.292;6.666;2023-07-20T11:12:09;96337.47;;;23.21;44.60
80851;BME280;70268;50.292;6.666;2023-07-20T11:14:41;96338.22;;;23.08;44.29
80851;BME280;70268;50.292;6.666;2023-07-20T11:17:11;96337.22;;;23.09;44.40
80851;BME280;70268;50.292;6.666;2023-07-20T11:19:42;96341.47;;;23.03;43.42
80851;BME280;70268;50.292;6.666;2023-07-20T11:22:16;96345.16;;;23.09;43.85
80851;BME280;70268;50.292;6.666;2023-07-20T11:24:44;96344.34;;;23.15;44.08
80851;BME280;70268;50.292;6.666;2023-07-20T11:27:13;96341.09;;;23.20;43.55
80851;BME280;70268;50.292;6.666;2023-07-20T11:29:41;96336.63;;;23.20;43.92
80851;BME280;70268;50.292;6.666;2023-07-20T11:32:10;96326.91;;;23.21;43.81
80851;BME280;70268;50.292;6.666;2023-07-20T11:34:39;96333.00;;;23.15;43.23
80851;BME280;70268;50.292;6.666;2023-07-20T11:37:09;96335.63;;;23.15;43.39
80851;BME280;70268;50.292;6.666;2023-07-20T11:39:38;96334.19;;;23.19;43.81
80851;BME280;70268;50.292;6.666;2023-07-20T11:42:07;96337.66;;;23.19;43.92
80851;BME280;70268;50.292;6.666;2023-07-20T11:44:36;96339.69;;;23.31;44.37
80851;BME280;70268;50.292;6.666;2023-07-20T11:47:07;96331.00;;;23.43;44.77
80851;BME280;70268;50.292;6.666;2023-07-20T11:49:38;96341.94;;;23.54;44.41
80851;BME280;70268;50.292;6.666;2023-07-20T11:52:09;96329.78;;;23.59;44.43
80851;BME280;70268;50.292;6.666;2023-07-20T11:54:39;96335.25;;;23.64;44.53
80851;BME280;70268;50.292;6.666;2023-07-20T11:57:16;96329.53;;;23.68;44.55
80851;BME280;70268;50.292;6.666;2023-07-20T11:59:52;96336.47;;;23.69;44.88
80851;BME280;70268;50.292;6.666;2023-07-20T12:02:22;96331.19;;;23.69;44.57
80851;BME280;70268;50.292;6.666;2023-07-20T12:04:52;96330.78;;;23.72;44.70
80851;BME280;70268;50.292;6.666;2023-07-20T12:07:27;96330.78;;;23.72;45.00
80851;BME280;70268;50.292;6.666;2023-07-20T12:10:03;96325.28;;;23.73;44.64
80851;BME280;70268;50.292;6.666;2023-07-20T12:12:32;96329.75;;;23.79;45.32
80851;BME280;70268;50.292;6.666;2023-07-20T12:15:14;96320.78;;;23.87;45.27
80851;BME280;70268;50.292;6.666;2023-07-20T12:17:43;96320.78;;;23.87;45.54
80851;BME280;70268;50.292;6.666;2023-07-20T12:20:12;96321.41;;;23.89;45.51
80851;BME280;70268;50.292;6.666;2023-07-20T12:22:43;96315.72;;;23.92;45.55
80851;BME280;70268;50.292;6.666;2023-07-20T12:25:12;96317.31;;;23.93;45.56
80851;BME280;70268;50.292;6.666;2023-07-20T12:27:40;96317.94;;;23.95;45.45
80851;BME280;70268;50.292;6.666;2023-07-20T12:30:10;96319.97;;;24.00;45.46
80851;BME280;70268;50.292;6.666;2023-07-20T12:32:40;96313.84;;;23.99;45.47
80851;BME280;70268;50.292;6.666;2023-07-20T12:35:09;96307.34;;;24.02;45.43
80851;BME280;70268;50.292;6.666;2023-07-20T12:37:39;96311.00;;;24.08;45.13
80851;BME280;70268;50.292;6.666;2023-07-20T12:40:09;96303.66;;;24.10;45.30
80851;BME280;70268;50.292;6.666;2023-07-20T12:42:38;96300.81;;;24.11;45.27
80851;BME280;70268;50.292;6.666;2023-07-20T12:45:08;96292.47;;;24.14;44.84
80851;BME280;70268;50.292;6.666;2023-07-20T12:47:38;96295.97;;;24.15;44.88
80851;BME280;70268;50.292;6.666;2023-07-20T12:50:07;96301.25;;;24.15;44.31
80851;BME280;70268;50.292;6.666;2023-07-20T12:52:36;96300.00;;;24.17;44.62
80851;BME280;70268;50.292;6.666;2023-07-20T12:55:06;96300.22;;;24.23;44.74
80851;BME280;70268;50.292;6.666;2023-07-20T12:57:37;96299.97;;;24.31;44.53
80851;BME280;70268;50.292;6.666;2023-07-20T13:00:08;96301.19;;;24.28;44.28
80851;BME280;70268;50.292;6.666;2023-07-20T13:02:38;96306.31;;;24.23;44.15
80851;BME280;70268;50.292;6.666;2023-07-20T13:05:08;96303.03;;;24.28;44.35
80851;BME280;70268;50.292;6.666;2023-07-20T13:07:38;96299.97;;;24.38;44.42
80851;BME280;70268;50.292;6.666;2023-07-20T13:10:11;96292.22;;;24.43;44.45
80851;BME280;70268;50.292;6.666;2023-07-20T13:12:41;96294.06;;;24.42;44.65
80851;BME280;70268;50.292;6.666;2023-07-20T13:15:10;96296.47;;;24.44;44.65
80851;BME280;70268;50.292;6.666;2023-07-20T13:17:39;96292.22;;;24.43;45.07